sensor_id;sensor_type;location;lat;lon;timestamp;P1;durP1;ratioP1;P2;durP2;ratioP2
50976;SDS011;36992;48.200;12.418;2024-01-10T00:00:32;11.93;;;5.45;;
50976;SDS011;36992;48.200;12.418;2024-01-10T00:02:59;11.95;;;4.53;;
50976;SDS011;36992;48.200;12.418;2024-01-10T00:05:25;11.13;;;4.25;;
50976;SDS011;36992;48.200;12.418;2024-01-10T00:07:53;12.82;;;5.35;;
50976;SDS011;36992;48.200;12.418;2024-01-10T00:10:20;8.25;;;3.78;;
50976;SDS011;36992;48.200;12.418;2024-01-10T00:12:46;10.10;;;4.82;;
50976;SDS011;36992;48.200;12.418;2024-01-10T00:15:13;10.00;;;4.72;;
50976;SDS011;36992;48.200;12.418;2024-01-10T00:17:39;9.23;;;4.68;;
50976;SDS011;36992;48.200;12.418;2024-01-10T00:20:07;11.20;;;4.93;;
50976;SDS011;36992;48.200;12.418;2024-01-10T00:22:34;9.63;;;4.60;;
50976;SDS011;36992;48.200;12.418;2024-01-10T00:25:02;12.63;;;4.82;;
50976;SDS011;36992;48.200;12.418;2024-01-10T00:27:29;11.23;;;5.07;;
50976;SDS011;36992;48.200;12.418;2024-01-10T00:29:56;10.50;;;4.57;;
50976;SDS011;36992;48.200;12.418;2024-01-10T00:32:22;8.73;;;4.18;;
50976;SDS011;36992;48.200;12.418;2024-01-10T00:34:49;10.32;;;4.45;;
50976;SDS011;36992;48.200;12.418;2024-01-10T00:37:15;10.63;;;4.70;;
50976;SDS011;36992;48.200;12.418;2024-01-10T00:39:42;8.63;;;4.30;;
50976;SDS011;36992;48.200;12.418;2024-01-10T00:42:10;12.85;;;4.13;;
50976;SDS011;36992;48.200;12.418;2024-01-10T00:44:36;10.75;;;5.53;;
50976;SDS011;36992;48.200;12.418;2024-01-10T00:47:04;9.45;;;4.38;;
50976;SDS011;36992;48.200;12.418;2024-01-10T00:49:31;11.32;;;5.35;;
50976;SDS011;36992;48.200;12.418;2024-01-10T00:51:57;9.02;;;3.92;;
50976;SDS011;36992;48.200;12.418;2024-01-10T00:54:24;11.82;;;4.72;;
50976;SDS011;36992;48.200;12.418;2024-01-10T00:56:50;11.52;;;4.50;;
50976;SDS011;36992;48.200;12.418;2024-01-10T00:59:18;12.30;;;4.15;;
50976;SDS011;36992;48.200;12.418;2024-01-10T01:01:45;9.45;;;3.90;;
50976;SDS011;36992;48.200;12.418;2024-01-10T01:04:11;10.68;;;5.53;;
50976;SDS011;36992;48.200;12.418;2024-01-10T01:06:37;8.82;;;3.78;;
50976;SDS011;36992;48.200;12.418;2024-01-10T01:09:04;10.38;;;4.53;;
50976;SDS011;36992;48.200;12.418;2024-01-10T01:11:31;10.55;;;4.30;;
50976;SDS011;36992;48.200;12.418;2024-01-10T01:13:57;8.18;;;4.15;;
50976;SDS011;36992;48.200;12.418;2024-01-10T01:16:25;9.00;;;4.47;;
50976;SDS011;36992;48.200;12.418;2024-01-10T01:18:51;11.32;;;4.57;;
50976;SDS011;36992;48.200;12.418;2024-01-10T01:21:18;8.68;;;4.10;;
50976;SDS011;36992;48.200;12.418;2024-01-10T01:23:44;9.85;;;3.95;;
50976;SDS011;36992;48.200;12.418;2024-01-10T01:26:11;8.93;;;3.50;;
50976;SDS011;36992;48.200;12.418;2024-01-10T01:28:39;10.13;;;4.90;;
50976;SDS011;36992;48.200;12.418;2024-01-10T01:31:05;12.60;;;4.80;;
50976;SDS011;36992;48.200;12.418;2024-01-10T01:33:33;9.07;;;3.95;;
50976;SDS011;36992;48.200;12.418;2024-01-10T01:36:01;10.75;;;4.88;;
50976;SDS011;36992;48.200;12.418;2024-01-10T01:38:27;10.50;;;4.35;;
50976;SDS011;36992;48.200;12.418;2024-01-10T01:40:54;10.68;;;3.67;;
50976;SDS011;36992;48.200;12.418;2024-01-10T01:43:21;11.13;;;5.07;;
50976;SDS011;36992;48.200;12.418;2024-01-10T01:45:50;8.98;;;4.50;;
50976;SDS011;36992;48.200;12.418;2024-01-10T01:48:17;14.15;;;6.57;;
50976;SDS011;36992;48.200;12.418;2024-01-10T01:50:45;10.93;;;4.90;;
50976;SDS011;36992;48.200;12.418;2024-01-10T01:53:14;11.52;;;5.30;;
50976;SDS011;36992;48.200;12.418;2024-01-10T01:55:41;13.10;;;4.88;;
50976;SDS011;36992;48.200;12.418;2024-01-10T01:58:09;11.73;;;4.60;;
50976;SDS011;36992;48.200;12.418;2024-01-10T02:00:37;11.05;;;4.45;;
50976;SDS011;36992;48.200;12.418;2024-01-10T02:03:04;8.13;;;4.10;;
50976;SDS011;36992;48.200;12.418;2024-01-10T02:05:31;10.82;;;5.03;;
50976;SDS011;36992;48.200;12.418;2024-01-10T02:07:59;11.23;;;4.60;;
50976;SDS011;36992;48.200;12.418;2024-01-10T02:10:26;11.25;;;4.45;;
50976;SDS011;36992;48.200;12.418;2024-01-10T02:12:52;11.50;;;4.20;;
50976;SDS011;36992;48.200;12.418;2024-01-10T02:15:19;8.85;;;4.20;;
50976;SDS011;36992;48.200;12.418;2024-01-10T02:17:45;12.18;;;4.95;;
50976;SDS011;36992;48.200;12.418;2024-01-10T02:20:12;9.35;;;4.00;;
50976;SDS011;36992;48.200;12.418;2024-01-10T02:22:41;9.65;;;4.95;;
50976;SDS011;36992;48.200;12.418;2024-01-10T02:25:09;11.20;;;4.80;;
50976;SDS011;36992;48.200;12.418;2024-01-10T02:27:36;8.85;;;3.95;;
50976;SDS011;36992;48.200;12.418;2024-01-10T02:30:04;10.95;;;4.53;;
50976;SDS011;36992;48.200;12.418;2024-01-10T02:32:32;10.25;;;4.20;;
50976;SDS011;36992;48.200;12.418;2024-01-10T02:34:59;12.18;;;5.05;;
50976;SDS011;36992;48.200;12.418;2024-01-10T02:37:26;10.45;;;4.93;;
50976;SDS011;36992;48.200;12.418;2024-01-10T02:39:52;9.98;;;5.35;;
50976;SDS011;36992;48.200;12.418;2024-01-10T02:42:20;9.60;;;4.18;;
50976;SDS011;36992;48.200;12.418;2024-01-10T02:44:47;11.85;;;4.28;;
50976;SDS011;36992;48.200;12.418;2024-01-10T02:47:13;9.82;;;4.25;;
50976;SDS011;36992;48.200;12.418;2024-01-10T02:49:39;8.65;;;4.05;;
50976;SDS011;36992;48.200;12.418;2024-01-10T02:52:06;10.95;;;4.38;;
50976;SDS011;36992;48.200;12.418;2024-01-10T02:54:32;9.95;;;5.18;;
50976;SDS011;36992;48.200;12.418;2024-01-10T02:56:59;10.95;;;4.80;;
50976;SDS011;36992;48.200;12.418;2024-01-10T02:59:27;9.82;;;4.25;;
50976;SDS011;36992;48.200;12.418;2024-01-10T03:01:53;9.05;;;3.90;;
50976;SDS011;36992;48.200;12.418;2024-01-10T03:04:20;12.30;;;5.15;;
50976;SDS011;36992;48.200;12.418;2024-01-10T03:06:46;11.50;;;4.63;;
50976;SDS011;36992;48.200;12.418;2024-01-10T03:09:13;8.10;;;3.58;;
50976;SDS011;36992;48.200;12.418;2024-01-10T03:11:39;12.90;;;5.18;;
50976;SDS011;36992;48.200;12.418;2024-01-10T03:14:07;8.52;;;4.50;;
50976;SDS011;36992;48.200;12.418;2024-01-10T03:16:35;11.50;;;4.72;;
50976;SDS011;36992;48.200;12.418;2024-01-10T03:19:03;10.90;;;4.40;;
50976;SDS011;36992;48.200;12.418;2024-01-10T03:21:29;9.70;;;4.47;;
50976;SDS011;36992;48.200;12.418;2024-01-10T03:23:56;10.95;;;5.13;;
50976;SDS011;36992;48.200;12.418;2024-01-10T03:26:24;10.85;;;4.57;;
50976;SDS011;36992;48.200;12.418;2024-01-10T03:28:51;11.20;;;4.45;;
50976;SDS011;36992;48.200;12.418;2024-01-10T03:31:18;11.70;;;5.47;;
50976;SDS011;36992;48.200;12.418;2024-01-10T03:33:46;9.10;;;4.15;;
50976;SDS011;36992;48.200;12.418;2024-01-10T03:36:13;12.07;;;4.22;;
50976;SDS011;36992;48.200;12.418;2024-01-10T03:38:41;16.75;;;6.28;;
50976;SDS011;36992;48.200;12.418;2024-01-10T03:41:08;9.30;;;4.45;;
50976;SDS011;36992;48.200;12.418;2024-01-10T03:43:39;13.45;;;4.35;;
50976;SDS011;36992;48.200;12.418;2024-01-10T03:46:05;9.13;;;4.38;;
50976;SDS011;36992;48.200;12.418;2024-01-10T03:48:32;10.05;;;4.70;;
50976;SDS011;36992;48.200;12.418;2024-01-10T03:51:00;10.98;;;4.70;;
50976;SDS011;36992;48.200;12.418;2024-01-10T03:53:26;9.63;;;4.40;;
50976;SDS011;36992;48.200;12.418;2024-01-10T03:55:53;7.80;;;3.75;;
50976;SDS011;36992;48.200;12.418;2024-01-10T03:58:19;10.57;;;4.20;;
50976;SDS011;36992;48.200;12.418;2024-01-10T04:00:46;7.90;;;3.70;;
50976;SDS011;36992;48.200;12.418;2024-01-10T04:03:12;9.63;;;4.60;;
50976;SDS011;36992;48.200;12.418;2024-01-10T04:05:39;8.75;;;4.03;;
50976;SDS011;36992;48.200;12.418;2024-01-10T04:08:08;8.82;;;4.18;;
50976;SDS011;36992;48.200;12.418;2024-01-10T04:10:35;9.32;;;4.05;;
50976;SDS011;36992;48.200;12.418;2024-01-10T04:13:01;9.23;;;4.07;;
50976;SDS011;36992;48.200;12.418;2024-01-10T04:15:28;9.70;;;4.10;;
50976;SDS011;36992;48.200;12.418;2024-01-10T04:17:54;11.50;;;4.25;;
50976;SDS011;36992;48.200;12.418;2024-01-10T04:20:21;10.18;;;4.68;;
50976;SDS011;36992;48.200;12.418;2024-01-10T04:22:47;9.07;;;4.03;;
50976;SDS011;36992;48.200;12.418;2024-01-10T04:25:15;9.65;;;3.90;;
50976;SDS011;36992;48.200;12.418;2024-01-10T04:27:42;9.15;;;3.95;;
50976;SDS011;36992;48.200;12.418;2024-01-10T04:30:09;10.93;;;4.57;;
50976;SDS011;36992;48.200;12.418;2024-01-10T04:32:36;9.65;;;4.10;;
50976;SDS011;36992;48.200;12.418;2024-01-10T04:35:02;11.05;;;4.43;;
50976;SDS011;36992;48.200;12.418;2024-01-10T04:37:30;9.63;;;3.80;;
50976;SDS011;36992;48.200;12.418;2024-01-10T04:39:56;10.52;;;4.97;;
50976;SDS011;36992;48.200;12.418;2024-01-10T04:42:24;9.80;;;4.28;;
50976;SDS011;36992;48.200;12.418;2024-01-10T04:44:51;9.38;;;4.15;;
50976;SDS011;36992;48.200;12.418;2024-01-10T04:47:18;10.15;;;4.32;;
50976;SDS011;36992;48.200;12.418;2024-01-10T04:49:45;10.48;;;4.97;;
50976;SDS011;36992;48.200;12.418;2024-01-10T04:52:12;9.38;;;4.68;;
50976;SDS011;36992;48.200;12.418;2024-01-10T04:54:38;11.35;;;4.63;;
50976;SDS011;36992;48.200;12.418;2024-01-10T04:57:05;9.60;;;4.50;;
50976;SDS011;36992;48.200;12.418;2024-01-10T04:59:33;9.85;;;4.90;;
50976;SDS011;36992;48.200;12.418;2024-01-10T05:02:00;7.97;;;3.38;;
50976;SDS011;36992;48.200;12.418;2024-01-10T05:04:27;11.55;;;4.78;;
50976;SDS011;36992;48.200;12.418;2024-01-10T05:06:53;9.60;;;4.20;;
50976;SDS011;36992;48.200;12.418;2024-01-10T05:09:20;11.38;;;4.47;;
50976;SDS011;36992;48.200;12.418;2024-01-10T05:11:47;10.48;;;4.57;;
50976;SDS011;36992;48.200;12.418;2024-01-10T05:14:15;11.82;;;4.63;;
50976;SDS011;36992;48.200;12.418;2024-01-10T05:16:45;10.13;;;4.57;;
50976;SDS011;36992;48.200;12.418;2024-01-10T05:19:12;14.27;;;5.55;;
50976;SDS011;36992;48.200;12.418;2024-01-10T05:21:39;13.40;;;4.80;;
50976;SDS011;36992;48.200;12.418;2024-01-10T05:24:06;9.75;;;4.57;;
50976;SDS011;36992;48.200;12.418;2024-01-10T05:26:33;8.85;;;3.83;;
50976;SDS011;36992;48.200;12.418;2024-01-10T05:28:59;9.00;;;4.22;;
50976;SDS011;36992;48.200;12.418;2024-01-10T05:31:26;6.80;;;3.90;;
50976;SDS011;36992;48.200;12.418;2024-01-10T05:33:54;12.32;;;5.38;;
50976;SDS011;36992;48.200;12.418;2024-01-10T05:36:21;12.02;;;5.40;;
50976;SDS011;36992;48.200;12.418;2024-01-10T05:38:49;10.93;;;5.03;;
50976;SDS011;36992;48.200;12.418;2024-01-10T05:41:15;9.02;;;4.63;;
50976;SDS011;36992;48.200;12.418;2024-01-10T05:43:42;13.05;;;5.35;;
50976;SDS011;36992;48.200;12.418;2024-01-10T05:46:09;10.40;;;5.18;;
50976;SDS011;36992;48.200;12.418;2024-01-10T05:48:35;12.13;;;6.22;;
50976;SDS011;36992;48.200;12.418;2024-01-10T05:51:03;11.60;;;5.00;;
50976;SDS011;36992;48.200;12.418;2024-01-10T05:53:30;12.90;;;6.07;;
50976;SDS011;36992;48.200;12.418;2024-01-10T05:55:58;10.68;;;4.90;;
50976;SDS011;36992;48.200;12.418;2024-01-10T05:58:24;12.48;;;5.53;;
50976;SDS011;36992;48.200;12.418;2024-01-10T06:00:51;9.57;;;4.63;;
50976;SDS011;36992;48.200;12.418;2024-01-10T06:03:17;12.18;;;4.80;;
50976;SDS011;36992;48.200;12.418;2024-01-10T06:05:44;10.32;;;4.85;;
50976;SDS011;36992;48.200;12.418;2024-01-10T06:08:12;12.65;;;4.57;;
50976;SDS011;36992;48.200;12.418;2024-01-10T06:10:40;11.25;;;4.78;;
50976;SDS011;36992;48.200;12.418;2024-01-10T06:13:07;13.93;;;6.32;;
50976;SDS011;36992;48.200;12.418;2024-01-10T06:15:32;11.32;;;5.93;;
50976;SDS011;36992;48.200;12.418;2024-01-10T06:17:59;9.95;;;5.32;;
50976;SDS011;36992;48.200;12.418;2024-01-10T06:20:26;13.32;;;5.45;;
50976;SDS011;36992;48.200;12.418;2024-01-10T06:22:52;14.68;;;5.15;;
50976;SDS011;36992;48.200;12.418;2024-01-10T06:25:20;12.18;;;4.93;;
50976;SDS011;36992;48.200;12.418;2024-01-10T06:27:48;10.77;;;5.10;;
50976;SDS011;36992;48.200;12.418;2024-01-10T06:30:15;10.98;;;4.65;;
50976;SDS011;36992;48.200;12.418;2024-01-10T06:32:41;9.52;;;4.82;;
50976;SDS011;36992;48.200;12.418;2024-01-10T06:35:08;11.35;;;5.07;;
50976;SDS011;36992;48.200;12.418;2024-01-10T06:37:35;14.60;;;5.28;;
50976;SDS011;36992;48.200;12.418;2024-01-10T06:40:02;9.00;;;4.10;;
50976;SDS011;36992;48.200;12.418;2024-01-10T06:42:32;10.88;;;4.28;;
50976;SDS011;36992;48.200;12.418;2024-01-10T06:44:58;12.60;;;4.90;;
50976;SDS011;36992;48.200;12.418;2024-01-10T06:47:25;10.82;;;4.72;;
50976;SDS011;36992;48.200;12.418;2024-01-10T06:49:52;12.50;;;4.88;;
50976;SDS011;36992;48.200;12.418;2024-01-10T06:52:18;9.55;;;4.63;;
50976;SDS011;36992;48.200;12.418;2024-01-10T06:54:45;10.88;;;4.72;;
50976;SDS011;36992;48.200;12.418;2024-01-10T06:57:12;11.77;;;5.07;;
50976;SDS011;36992;48.200;12.418;2024-01-10T06:59:40;11.75;;;5.15;;
50976;SDS011;36992;48.200;12.418;2024-01-10T07:02:06;14.25;;;6.72;;
50976;SDS011;36992;48.200;12.418;2024-01-10T07:04:33;16.30;;;6.45;;
50976;SDS011;36992;48.200;12.418;2024-01-10T07:07:03;12.32;;;5.70;;
50976;SDS011;36992;48.200;12.418;2024-01-10T07:09:30;11.93;;;6.15;;
50976;SDS011;36992;48.200;12.418;2024-01-10T07:11:57;20.73;;;7.97;;
50976;SDS011;36992;48.200;12.418;2024-01-10T07:14:23;16.30;;;6.82;;
50976;SDS011;36992;48.200;12.418;2024-01-10T07:16:51;13.35;;;6.05;;
50976;SDS011;36992;48.200;12.418;2024-01-10T07:19:21;12.93;;;4.82;;
50976;SDS011;36992;48.200;12.418;2024-01-10T07:21:49;15.18;;;6.20;;
50976;SDS011;36992;48.200;12.418;2024-01-10T07:24:15;16.48;;;6.78;;
50976;SDS011;36992;48.200;12.418;2024-01-10T07:26:42;16.38;;;6.53;;
50976;SDS011;36992;48.200;12.418;2024-01-10T07:29:08;14.63;;;6.28;;
50976;SDS011;36992;48.200;12.418;2024-01-10T07:31:35;18.20;;;6.85;;
50976;SDS011;36992;48.200;12.418;2024-01-10T07:34:03;14.57;;;5.68;;
50976;SDS011;36992;48.200;12.418;2024-01-10T07:36:31;16.83;;;7.07;;
50976;SDS011;36992;48.200;12.418;2024-01-10T07:38:58;14.32;;;5.15;;
50976;SDS011;36992;48.200;12.418;2024-01-10T07:41:25;14.93;;;6.25;;
50976;SDS011;36992;48.200;12.418;2024-01-10T07:43:51;15.65;;;6.30;;
50976;SDS011;36992;48.200;12.418;2024-01-10T07:46:18;13.93;;;5.43;;
50976;SDS011;36992;48.200;12.418;2024-01-10T07:48:45;19.58;;;8.85;;
50976;SDS011;36992;48.200;12.418;2024-01-10T07:51:12;20.42;;;6.60;;
50976;SDS011;36992;48.200;12.418;2024-01-10T07:53:39;15.48;;;6.20;;
50976;SDS011;36992;48.200;12.418;2024-01-10T07:56:06;13.63;;;6.47;;
50976;SDS011;36992;48.200;12.418;2024-01-10T07:58:32;16.88;;;6.32;;
50976;SDS011;36992;48.200;12.418;2024-01-10T08:00:59;18.10;;;7.38;;
50976;SDS011;36992;48.200;12.418;2024-01-10T08:03:25;17.98;;;6.22;;
50976;SDS011;36992;48.200;12.418;2024-01-10T08:05:52;12.35;;;4.93;;
50976;SDS011;36992;48.200;12.418;2024-01-10T08:08:19;17.20;;;7.35;;
50976;SDS011;36992;48.200;12.418;2024-01-10T08:10:46;14.18;;;5.10;;
50976;SDS011;36992;48.200;12.418;2024-01-10T08:13:12;14.07;;;5.53;;
50976;SDS011;36992;48.200;12.418;2024-01-10T08:15:39;16.83;;;6.93;;
50976;SDS011;36992;48.200;12.418;2024-01-10T08:18:06;20.13;;;8.27;;
50976;SDS011;36992;48.200;12.418;2024-01-10T08:20:33;19.98;;;7.88;;
50976;SDS011;36992;48.200;12.418;2024-01-10T08:22:59;18.08;;;6.88;;
50976;SDS011;36992;48.200;12.418;2024-01-10T08:25:27;19.60;;;7.30;;
50976;SDS011;36992;48.200;12.418;2024-01-10T08:27:54;17.25;;;6.55;;
50976;SDS011;36992;48.200;12.418;2024-01-10T08:30:22;16.38;;;6.50;;
50976;SDS011;36992;48.200;12.418;2024-01-10T08:32:49;14.05;;;6.15;;
50976;SDS011;36992;48.200;12.418;2024-01-10T08:35:15;14.70;;;6.18;;
50976;SDS011;36992;48.200;12.418;2024-01-10T08:37:43;14.23;;;5.80;;
50976;SDS011;36992;48.200;12.418;2024-01-10T08:40:10;16.83;;;6.43;;
50976;SDS011;36992;48.200;12.418;2024-01-10T08:42:41;17.23;;;6.72;;
50976;SDS011;36992;48.200;12.418;2024-01-10T08:45:08;16.08;;;6.57;;
50976;SDS011;36992;48.200;12.418;2024-01-10T08:47:36;15.98;;;5.95;;
50976;SDS011;36992;48.200;12.418;2024-01-10T08:50:03;17.45;;;5.88;;
50976;SDS011;36992;48.200;12.418;2024-01-10T08:52:33;17.92;;;6.72;;
50976;SDS011;36992;48.200;12.418;2024-01-10T08:55:00;16.75;;;5.80;;
50976;SDS011;36992;48.200;12.418;2024-01-10T08:57:26;16.80;;;6.65;;
50976;SDS011;36992;48.200;12.418;2024-01-10T08:59:54;19.45;;;6.57;;
50976;SDS011;36992;48.200;12.418;2024-01-10T09:02:21;12.35;;;5.38;;
50976;SDS011;36992;48.200;12.418;2024-01-10T09:04:48;14.73;;;6.78;;
50976;SDS011;36992;48.200;12.418;2024-01-10T09:07:15;15.63;;;6.50;;
50976;SDS011;36992;48.200;12.418;2024-01-10T09:09:43;14.90;;;6.63;;
50976;SDS011;36992;48.200;12.418;2024-01-10T09:12:09;15.55;;;7.43;;
50976;SDS011;36992;48.200;12.418;2024-01-10T09:14:36;17.58;;;7.20;;
50976;SDS011;36992;48.200;12.418;2024-01-10T09:17:04;14.45;;;5.85;;
50976;SDS011;36992;48.200;12.418;2024-01-10T09:19:32;14.38;;;5.70;;
50976;SDS011;36992;48.200;12.418;2024-01-10T09:21:59;15.27;;;5.30;;
50976;SDS011;36992;48.200;12.418;2024-01-10T09:24:25;12.25;;;5.43;;
50976;SDS011;36992;48.200;12.418;2024-01-10T09:26:52;15.85;;;4.90;;
50976;SDS011;36992;48.200;12.418;2024-01-10T09:29:19;14.63;;;5.90;;
50976;SDS011;36992;48.200;12.418;2024-01-10T09:31:46;12.00;;;5.13;;
50976;SDS011;36992;48.200;12.418;2024-01-10T09:34:14;13.02;;;5.47;;
50976;SDS011;36992;48.200;12.418;2024-01-10T09:36:40;14.27;;;5.55;;
50976;SDS011;36992;48.200;12.418;2024-01-10T09:39:07;13.02;;;5.40;;
50976;SDS011;36992;48.200;12.418;2024-01-10T09:41:40;16.90;;;6.28;;
50976;SDS011;36992;48.200;12.418;2024-01-10T09:44:11;18.55;;;5.82;;
50976;SDS011;36992;48.200;12.418;2024-01-10T09:46:38;13.63;;;5.95;;
50976;SDS011;36992;48.200;12.418;2024-01-10T09:49:06;14.05;;;6.43;;
50976;SDS011;36992;48.200;12.418;2024-01-10T09:51:36;15.27;;;6.65;;
50976;SDS011;36992;48.200;12.418;2024-01-10T09:54:03;14.50;;;5.60;;
50976;SDS011;36992;48.200;12.418;2024-01-10T09:56:30;12.77;;;5.97;;
50976;SDS011;36992;48.200;12.418;2024-01-10T09:58:58;14.70;;;5.75;;
50976;SDS011;36992;48.200;12.418;2024-01-10T10:01:27;15.35;;;6.32;;
50976;SDS011;36992;48.200;12.418;2024-01-10T10:03:53;14.30;;;6.03;;
50976;SDS011;36992;48.200;12.418;2024-01-10T10:06:22;15.80;;;5.88;;
50976;SDS011;36992;48.200;12.418;2024-01-10T10:08:50;15.27;;;7.05;;
50976;SDS011;36992;48.200;12.418;2024-01-10T10:11:16;19.92;;;7.45;;
50976;SDS011;36992;48.200;12.418;2024-01-10T10:13:43;20.30;;;7.32;;
50976;SDS011;36992;48.200;12.418;2024-01-10T10:16:10;13.93;;;5.40;;
50976;SDS011;36992;48.200;12.418;2024-01-10T10:18:38;13.18;;;6.55;;
50976;SDS011;36992;48.200;12.418;2024-01-10T10:21:07;17.55;;;6.03;;
50976;SDS011;36992;48.200;12.418;2024-01-10T10:23:36;15.07;;;5.75;;
50976;SDS011;36992;48.200;12.418;2024-01-10T10:26:11;18.50;;;7.05;;
50976;SDS011;36992;48.200;12.418;2024-01-10T10:28:44;18.33;;;6.30;;
50976;SDS011;36992;48.200;12.418;2024-01-10T10:31:11;15.75;;;6.43;;
50976;SDS011;36992;48.200;12.418;2024-01-10T10:33:37;17.48;;;5.80;;
50976;SDS011;36992;48.200;12.418;2024-01-10T10:36:04;15.50;;;6.55;;
50976;SDS011;36992;48.200;12.418;2024-01-10T10:38:31;15.05;;;6.00;;
50976;SDS011;36992;48.200;12.418;2024-01-10T10:40:58;18.15;;;6.47;;
50976;SDS011;36992;48.200;12.418;2024-01-10T10:43:27;18.60;;;7.05;;
50976;SDS011;36992;48.200;12.418;2024-01-10T10:45:59;13.25;;;5.43;;
50976;SDS011;36992;48.200;12.418;2024-01-10T10:48:27;15.10;;;6.88;;
50976;SDS011;36992;48.200;12.418;2024-01-10T10:51:04;21.85;;;7.55;;
50976;SDS011;36992;48.200;12.418;2024-01-10T10:53:33;20.02;;;8.38;;
50976;SDS011;36992;48.200;12.418;2024-01-10T10:56:01;14.82;;;5.72;;
50976;SDS011;36992;48.200;12.418;2024-01-10T10:58:32;18.90;;;6.55;;
50976;SDS011;36992;48.200;12.418;2024-01-10T11:01:01;17.92;;;7.07;;
50976;SDS011;36992;48.200;12.418;2024-01-10T11:03:31;15.55;;;6.28;;
50976;SDS011;36992;48.200;12.418;2024-01-10T11:06:01;18.58;;;7.40;;
50976;SDS011;36992;48.200;12.418;2024-01-10T11:08:28;15.20;;;6.32;;
50976;SDS011;36992;48.200;12.418;2024-01-10T11:10:59;17.80;;;7.50;;
50976;SDS011;36992;48.200;12.418;2024-01-10T11:13:32;14.90;;;7.30;;
50976;SDS011;36992;48.200;12.418;2024-01-10T11:16:34;14.93;;;6.63;;
50976;SDS011;36992;48.200;12.418;2024-01-10T11:19:33;13.80;;;5.68;;
50976;SDS011;36992;48.200;12.418;2024-01-10T11:22:21;21.88;;;8.68;;
50976;SDS011;36992;48.200;12.418;2024-01-10T11:24:59;22.92;;;9.52;;
50976;SDS011;36992;48.200;12.418;2024-01-10T11:27:26;20.27;;;9.07;;
50976;SDS011;36992;48.200;12.418;2024-01-10T11:29:54;17.30;;;6.93;;
50976;SDS011;36992;48.200;12.418;2024-01-10T11:32:22;17.00;;;6.85;;
50976;SDS011;36992;48.200;12.418;2024-01-10T11:34:55;15.60;;;5.93;;
50976;SDS011;36992;48.200;12.418;2024-01-10T11:37:23;14.02;;;5.68;;
50976;SDS011;36992;48.200;12.418;2024-01-10T11:39:54;17.42;;;5.97;;
50976;SDS011;36992;48.200;12.418;2024-01-10T11:42:21;14.02;;;5.50;;
50976;SDS011;36992;48.200;12.418;2024-01-10T11:44:49;13.65;;;5.43;;
50976;SDS011;36992;48.200;12.418;2024-01-10T11:47:18;19.77;;;8.07;;
50976;SDS011;36992;48.200;12.418;2024-01-10T11:49:53;15.40;;;5.85;;
50976;SDS011;36992;48.200;12.418;2024-01-10T11:52:21;17.50;;;6.55;;
50976;SDS011;36992;48.200;12.418;2024-01-10T11:54:48;17.42;;;7.00;;
50976;SDS011;36992;48.200;12.418;2024-01-10T11:57:18;16.40;;;6.55;;
50976;SDS011;36992;48.200;12.418;2024-01-10T11:59:47;15.77;;;5.72;;
50976;SDS011;36992;48.200;12.418;2024-01-10T12:02:16;12.18;;;4.88;;
50976;SDS011;36992;48.200;12.418;2024-01-10T12:04:45;14.90;;;5.43;;
50976;SDS011;36992;48.200;12.418;2024-01-10T12:07:12;16.05;;;6.85;;
50976;SDS011;36992;48.200;12.418;2024-01-10T12:09:39;22.10;;;8.93;;
50976;SDS011;36992;48.200;12.418;2024-01-10T12:12:07;13.30;;;6.15;;
50976;SDS011;36992;48.200;12.418;2024-01-10T12:14:34;16.40;;;6.32;;
50976;SDS011;36992;48.200;12.418;2024-01-10T12:17:01;16.98;;;6.57;;
50976;SDS011;36992;48.200;12.418;2024-01-10T12:19:31;14.18;;;5.25;;
50976;SDS011;36992;48.200;12.418;2024-01-10T12:21:57;12.32;;;5.03;;
50976;SDS011;36992;48.200;12.418;2024-01-10T12:24:23;20.00;;;7.28;;
50976;SDS011;36992;48.200;12.418;2024-01-10T12:26:54;14.30;;;5.78;;
50976;SDS011;36992;48.200;12.418;2024-01-10T12:29:21;14.48;;;5.85;;
50976;SDS011;36992;48.200;12.418;2024-01-10T12:31:50;16.17;;;6.30;;
50976;SDS011;36992;48.200;12.418;2024-01-10T12:34:16;16.98;;;5.78;;
50976;SDS011;36992;48.200;12.418;2024-01-10T12:36:45;14.93;;;5.47;;
50976;SDS011;36992;48.200;12.418;2024-01-10T12:39:12;14.30;;;6.43;;
50976;SDS011;36992;48.200;12.418;2024-01-10T12:41:39;14.93;;;6.10;;
50976;SDS011;36992;48.200;12.418;2024-01-10T12:44:07;17.83;;;6.63;;
50976;SDS011;36992;48.200;12.418;2024-01-10T12:46:33;11.32;;;5.15;;
50976;SDS011;36992;48.200;12.418;2024-01-10T12:49:00;16.00;;;6.30;;
50976;SDS011;36992;48.200;12.418;2024-01-10T12:51:30;14.43;;;5.97;;
50976;SDS011;36992;48.200;12.418;2024-01-10T12:53:59;16.30;;;6.72;;
50976;SDS011;36992;48.200;12.418;2024-01-10T12:56:27;17.85;;;7.00;;
50976;SDS011;36992;48.200;12.418;2024-01-10T12:58:54;14.73;;;5.85;;
50976;SDS011;36992;48.200;12.418;2024-01-10T13:01:21;14.45;;;5.85;;
50976;SDS011;36992;48.200;12.418;2024-01-10T13:03:48;17.23;;;6.97;;
50976;SDS011;36992;48.200;12.418;2024-01-10T13:06:15;15.80;;;6.35;;
50976;SDS011;36992;48.200;12.418;2024-01-10T13:08:42;19.40;;;8.50;;
50976;SDS011;36992;48.200;12.418;2024-01-10T13:11:10;17.08;;;7.55;;
50976;SDS011;36992;48.200;12.418;2024-01-10T13:13:39;18.58;;;7.65;;
50976;SDS011;36992;48.200;12.418;2024-01-10T13:16:06;18.10;;;7.60;;
50976;SDS011;36992;48.200;12.418;2024-01-10T13:18:35;22.30;;;10.25;;
50976;SDS011;36992;48.200;12.418;2024-01-10T13:21:02;21.35;;;7.60;;
50976;SDS011;36992;48.200;12.418;2024-01-10T13:23:29;16.63;;;7.47;;
50976;SDS011;36992;48.200;12.418;2024-01-10T13:25:55;17.88;;;7.43;;
50976;SDS011;36992;48.200;12.418;2024-01-10T13:28:23;18.90;;;7.82;;
50976;SDS011;36992;48.200;12.418;2024-01-10T13:30:50;18.05;;;7.43;;
50976;SDS011;36992;48.200;12.418;2024-01-10T13:33:17;16.92;;;6.93;;
50976;SDS011;36992;48.200;12.418;2024-01-10T13:35:45;13.93;;;6.60;;
50976;SDS011;36992;48.200;12.418;2024-01-10T13:38:12;17.15;;;7.05;;
50976;SDS011;36992;48.200;12.418;2024-01-10T13:40:38;17.02;;;7.13;;
50976;SDS011;36992;48.200;12.418;2024-01-10T13:43:05;19.25;;;7.88;;
50976;SDS011;36992;48.200;12.418;2024-01-10T13:45:33;16.27;;;7.20;;
50976;SDS011;36992;48.200;12.418;2024-01-10T13:48:00;16.55;;;8.15;;
50976;SDS011;36992;48.200;12.418;2024-01-10T13:50:26;19.38;;;8.32;;
50976;SDS011;36992;48.200;12.418;2024-01-10T13:52:55;20.95;;;9.05;;
50976;SDS011;36992;48.200;12.418;2024-01-10T13:55:21;18.35;;;8.02;;
50976;SDS011;36992;48.200;12.418;2024-01-10T13:57:49;17.15;;;7.40;;
50976;SDS011;36992;48.200;12.418;2024-01-10T14:00:18;19.60;;;7.63;;
50976;SDS011;36992;48.200;12.418;2024-01-10T14:02:47;21.15;;;9.85;;
50976;SDS011;36992;48.200;12.418;2024-01-10T14:05:14;18.45;;;8.15;;
50976;SDS011;36992;48.200;12.418;2024-01-10T14:07:40;21.17;;;8.50;;
50976;SDS011;36992;48.200;12.418;2024-01-10T14:10:09;16.90;;;8.98;;
50976;SDS011;36992;48.200;12.418;2024-01-10T14:12:36;18.05;;;8.30;;
50976;SDS011;36992;48.200;12.418;2024-01-10T14:15:03;18.63;;;8.30;;
50976;SDS011;36992;48.200;12.418;2024-01-10T14:17:30;20.48;;;7.53;;
50976;SDS011;36992;48.200;12.418;2024-01-10T14:19:57;19.50;;;8.93;;
50976;SDS011;36992;48.200;12.418;2024-01-10T14:22:24;26.42;;;10.95;;
50976;SDS011;36992;48.200;12.418;2024-01-10T14:24:51;20.60;;;9.98;;